sensor_id;sensor_type;location;lat;lon;timestamp;temperature;humidity
8253;DHT22;61313;48.396;10.008;2022-08-19T00:01:37;22.00;1.00
8253;DHT22;61313;48.396;10.008;2022-08-19T00:04:05;21.80;99.90
8253;DHT22;61313;48.396;10.008;2022-08-19T00:06:33;21.90;99.90
8253;DHT22;61313;48.396;10.008;2022-08-19T00:09:01;21.90;99.90
8253;DHT22;61313;48.396;10.008;2022-08-19T00:11:27;22.00;99.90
8253;DHT22;61313;48.396;10.008;2022-08-19T00:13:54;22.00;99.90
8253;DHT22;61313;48.396;10.008;2022-08-19T00:16:20;22.10;1.00
8253;DHT22;61313;48.396;10.008;2022-08-19T00:18:47;22.00;99.90
8253;DHT22;61313;48.396;10.008;2022-08-19T00:21:13;21.90;1.00
8253;DHT22;61313;48.396;10.008;2022-08-19T00:23:40;21.80;19.80
8253;DHT22;61313;48.396;10.008;2022-08-19T00:26:07;21.70;1.00
8253;DHT22;61313;48.396;10.008;2022-08-19T00:28:33;21.80;1.00
8253;DHT22;61313;48.396;10.008;2022-08-19T00:31:05;21.80;99.90
8253;DHT22;61313;48.396;10.008;2022-08-19T00:33:31;21.70;99.90
8253;DHT22;61313;48.396;10.008;2022-08-19T00:35:59;21.60;99.90
8253;DHT22;61313;48.396;10.008;2022-08-19T00:38:25;21.70;99.90
8253;DHT22;61313;48.396;10.008;2022-08-19T00:40:51;21.70;99.90
8253;DHT22;61313;48.396;10.008;2022-08-19T00:43:23;21.90;1.00
8253;DHT22;61313;48.396;10.008;2022-08-19T00:45:48;21.80;1.00
8253;DHT22;61313;48.396;10.008;2022-08-19T00:48:15;21.60;1.00
8253;DHT22;61313;48.396;10.008;2022-08-19T00:50:43;21.70;1.00
8253;DHT22;61313;48.396;10.008;2022-08-19T00:53:13;21.70;1.00
8253;DHT22;61313;48.396;10.008;2022-08-19T00:55:42;21.70;1.00
8253;DHT22;61313;48.396;10.008;2022-08-19T00:58:13;21.60;99.90
8253;DHT22;61313;48.396;10.008;2022-08-19T01:00:39;21.70;99.90
8253;DHT22;61313;48.396;10.008;2022-08-19T01:03:08;21.70;1.00
8253;DHT22;61313;48.396;10.008;2022-08-19T01:05:35;21.70;1.00
8253;DHT22;61313;48.396;10.008;2022-08-19T01:08:03;21.80;99.90
8253;DHT22;61313;48.396;10.008;2022-08-19T01:10:33;21.90;1.00
8253;DHT22;61313;48.396;10.008;2022-08-19T01:13:02;22.00;99.90
8253;DHT22;61313;48.396;10.008;2022-08-19T01:15:34;22.00;99.90
8253;DHT22;61313;48.396;10.008;2022-08-19T01:18:06;22.10;99.90
8253;DHT22;61313;48.396;10.008;2022-08-19T01:20:32;22.00;92.70
8253;DHT22;61313;48.396;10.008;2022-08-19T01:23:00;22.00;99.90
8253;DHT22;61313;48.396;10.008;2022-08-19T01:25:44;21.90;1.00
8253;DHT22;61313;48.396;10.008;2022-08-19T01:28:21;21.90;1.00
8253;DHT22;61313;48.396;10.008;2022-08-19T01:30:47;22.00;1.00
8253;DHT22;61313;48.396;10.008;2022-08-19T01:33:14;22.00;1.00
8253;DHT22;61313;48.396;10.008;2022-08-19T01:35:40;21.90;1.00
8253;DHT22;61313;48.396;10.008;2022-08-19T01:38:09;21.80;1.00
8253;DHT22;61313;48.396;10.008;2022-08-19T01:40:38;21.70;1.00
8253;DHT22;61313;48.396;10.008;2022-08-19T01:43:05;21.50;99.90
8253;DHT22;61313;48.396;10.008;2022-08-19T01:45:33;21.70;99.90
8253;DHT22;61313;48.396;10.008;2022-08-19T01:48:00;21.90;1.00
8253;DHT22;61313;48.396;10.008;2022-08-19T01:50:26;21.90;1.00
8253;DHT22;61313;48.396;10.008;2022-08-19T01:52:52;21.80;1.00
8253;DHT22;61313;48.396;10.008;2022-08-19T01:55:20;21.90;99.90
8253;DHT22;61313;48.396;10.008;2022-08-19T01:57:51;21.80;99.90
8253;DHT22;61313;48.396;10.008;2022-08-19T02:00:21;21.90;99.90
8253;DHT22;61313;48.396;10.008;2022-08-19T02:02:47;21.80;1.00
8253;DHT22;61313;48.396;10.008;2022-08-19T02:05:13;21.60;19.00
8253;DHT22;61313;48.396;10.008;2022-08-19T02:07:40;21.50;99.90
8253;DHT22;61313;48.396;10.008;2022-08-19T02:10:09;21.50;99.90
8253;DHT22;61313;48.396;10.008;2022-08-19T02:12:36;21.70;1.00
8253;DHT22;61313;48.396;10.008;2022-08-19T02:15:03;21.90;99.90
8253;DHT22;61313;48.396;10.008;2022-08-19T02:17:29;21.90;99.90
8253;DHT22;61313;48.396;10.008;2022-08-19T02:19:56;21.90;99.90
8253;DHT22;61313;48.396;10.008;2022-08-19T02:22:22;21.90;92.50
8253;DHT22;61313;48.396;10.008;2022-08-19T02:24:48;22.00;1.00
8253;DHT22;61313;48.396;10.008;2022-08-19T02:27:15;21.90;1.20
8253;DHT22;61313;48.396;10.008;2022-08-19T02:29:40;21.90;37.00
8253;DHT22;61313;48.396;10.008;2022-08-19T02:32:07;21.90;95.30
8253;DHT22;61313;48.396;10.008;2022-08-19T02:34:34;21.70;99.90
8253;DHT22;61313;48.396;10.008;2022-08-19T02:37:00;21.70;1.00
8253;DHT22;61313;48.396;10.008;2022-08-19T02:39:25;21.80;99.90
8253;DHT22;61313;48.396;10.008;2022-08-19T02:41:52;21.80;99.90
8253;DHT22;61313;48.396;10.008;2022-08-19T02:44:18;21.60;94.30
8253;DHT22;61313;48.396;10.008;2022-08-19T02:46:46;21.70;1.00
8253;DHT22;61313;48.396;10.008;2022-08-19T02:49:12;21.70;1.00
8253;DHT22;61313;48.396;10.008;2022-08-19T02:51:44;21.70;1.00
8253;DHT22;61313;48.396;10.008;2022-08-19T02:54:11;21.70;1.00
8253;DHT22;61313;48.396;10.008;2022-08-19T02:56:40;21.80;99.90
8253;DHT22;61313;48.396;10.008;2022-08-19T02:59:06;21.90;99.90
8253;DHT22;61313;48.396;10.008;2022-08-19T03:01:37;21.80;1.00
8253;DHT22;61313;48.396;10.008;2022-08-19T03:04:05;21.80;1.00
8253;DHT22;61313;48.396;10.008;2022-08-19T03:06:31;21.80;99.90
8253;DHT22;61313;48.396;10.008;2022-08-19T03:08:57;21.80;1.00
8253;DHT22;61313;48.396;10.008;2022-08-19T03:11:29;21.70;1.00
8253;DHT22;61313;48.396;10.008;2022-08-19T03:13:56;21.70;1.00
8253;DHT22;61313;48.396;10.008;2022-08-19T03:16:24;21.80;99.90
8253;DHT22;61313;48.396;10.008;2022-08-19T03:18:51;21.80;99.90
8253;DHT22;61313;48.396;10.008;2022-08-19T03:21:21;21.90;99.90
8253;DHT22;61313;48.396;10.008;2022-08-19T03:23:47;22.00;1.00
8253;DHT22;61313;48.396;10.008;2022-08-19T03:26:13;21.90;99.90
8253;DHT22;61313;48.396;10.008;2022-08-19T03:28:41;21.80;99.90
8253;DHT22;61313;48.396;10.008;2022-08-19T03:31:12;21.80;99.90
8253;DHT22;61313;48.396;10.008;2022-08-19T03:33:38;21.80;99.90
8253;DHT22;61313;48.396;10.008;2022-08-19T03:36:22;21.90;99.90
8253;DHT22;61313;48.396;10.008;2022-08-19T03:38:50;21.90;99.90
8253;DHT22;61313;48.396;10.008;2022-08-19T03:41:19;21.80;99.90
8253;DHT22;61313;48.396;10.008;2022-08-19T03:43:46;21.90;99.90
8253;DHT22;61313;48.396;10.008;2022-08-19T03:46:17;21.80;99.90
8253;DHT22;61313;48.396;10.008;2022-08-19T03:48:46;21.80;99.90
8253;DHT22;61313;48.396;10.008;2022-08-19T03:51:27;21.80;1.00
8253;DHT22;61313;48.396;10.008;2022-08-19T03:53:54;21.70;1.00
8253;DHT22;61313;48.396;10.008;2022-08-19T03:56:21;21.80;1.00
8253;DHT22;61313;48.396;10.008;2022-08-19T03:58:47;21.70;1.00
8253;DHT22;61313;48.396;10.008;2022-08-19T04:01:15;21.60;1.00
8253;DHT22;61313;48.396;10.008;2022-08-19T04:03:41;21.60;57.20
8253;DHT22;61313;48.396;10.008;2022-08-19T04:06:15;21.70;1.00
8253;DHT22;61313;48.396;10.008;2022-08-19T04:08:42;21.60;1.00
8253;DHT22;61313;48.396;10.008;2022-08-19T04:11:12;21.50;99.90
8253;DHT22;61313;48.396;10.008;2022-08-19T04:13:38;21.50;1.00
8253;DHT22;61313;48.396;10.008;2022-08-19T04:16:05;21.40;1.00
8253;DHT22;61313;48.396;10.008;2022-08-19T04:18:31;21.10;99.90
8253;DHT22;61313;48.396;10.008;2022-08-19T04:20:58;21.10;1.00
8253;DHT22;61313;48.396;10.008;2022-08-19T04:23:24;21.20;1.00
8253;DHT22;61313;48.396;10.008;2022-08-19T04:25:49;21.40;99.90
8253;DHT22;61313;48.396;10.008;2022-08-19T04:28:15;21.10;1.00
8253;DHT22;61313;48.396;10.008;2022-08-19T04:30:47;21.10;1.00
8253;DHT22;61313;48.396;10.008;2022-08-19T04:33:14;20.90;99.90
8253;DHT22;61313;48.396;10.008;2022-08-19T04:35:43;21.10;99.90
8253;DHT22;61313;48.396;10.008;2022-08-19T04:38:09;21.10;1.00
8253;DHT22;61313;48.396;10.008;2022-08-19T04:40:44;21.40;17.10
8253;DHT22;61313;48.396;10.008;2022-08-19T04:43:29;21.50;1.00
8253;DHT22;61313;48.396;10.008;2022-08-19T04:45:55;21.60;1.00
8253;DHT22;61313;48.396;10.008;2022-08-19T04:48:22;21.60;1.00
8253;DHT22;61313;48.396;10.008;2022-08-19T04:50:57;21.60;1.00
8253;DHT22;61313;48.396;10.008;2022-08-19T04:53:28;21.30;1.00
8253;DHT22;61313;48.396;10.008;2022-08-19T04:55:58;21.40;15.40
8253;DHT22;61313;48.396;10.008;2022-08-19T04:58:26;21.40;1.00
8253;DHT22;61313;48.396;10.008;2022-08-19T05:00:53;21.50;1.00
8253;DHT22;61313;48.396;10.008;2022-08-19T05:03:19;21.40;1.00
8253;DHT22;61313;48.396;10.008;2022-08-19T05:05:47;21.30;1.00
8253;DHT22;61313;48.396;10.008;2022-08-19T05:08:19;21.50;1.00
8253;DHT22;61313;48.396;10.008;2022-08-19T05:10:49;21.40;1.00
8253;DHT22;61313;48.396;10.008;2022-08-19T05:13:17;21.30;99.90
8253;DHT22;61313;48.396;10.008;2022-08-19T05:15:43;21.20;1.00
8253;DHT22;61313;48.396;10.008;2022-08-19T05:18:10;21.20;1.00
8253;DHT22;61313;48.396;10.008;2022-08-19T05:20:54;21.30;1.00
8253;DHT22;61313;48.396;10.008;2022-08-19T05:23:38;21.50;99.90
8253;DHT22;61313;48.396;10.008;2022-08-19T05:26:05;21.50;1.00
8253;DHT22;61313;48.396;10.008;2022-08-19T05:28:31;21.60;99.90
8253;DHT22;61313;48.396;10.008;2022-08-19T05:30:57;21.60;99.90
8253;DHT22;61313;48.396;10.008;2022-08-19T05:33:23;21.70;82.90
8253;DHT22;61313;48.396;10.008;2022-08-19T05:35:50;21.80;1.00
8253;DHT22;61313;48.396;10.008;2022-08-19T05:38:19;21.90;1.00
8253;DHT22;61313;48.396;10.008;2022-08-19T05:40:45;21.90;1.00
8253;DHT22;61313;48.396;10.008;2022-08-19T05:43:12;21.80;60.00
8253;DHT22;61313;48.396;10.008;2022-08-19T05:45:42;21.70;55.30
8253;DHT22;61313;48.396;10.008;2022-08-19T05:48:11;21.70;1.00
8253;DHT22;61313;48.396;10.008;2022-08-19T05:50:41;20.80;99.90
8253;DHT22;61313;48.396;10.008;2022-08-19T05:53:07;20.90;99.90
8253;DHT22;61313;48.396;10.008;2022-08-19T05:55:34;21.10;1.00
8253;DHT22;61313;48.396;10.008;2022-08-19T05:58:00;21.10;1.00
8253;DHT22;61313;48.396;10.008;2022-08-19T06:00:27;21.10;1.00
8253;DHT22;61313;48.396;10.008;2022-08-19T06:02:53;21.20;99.90
8253;DHT22;61313;48.396;10.008;2022-08-19T06:05:21;21.30;36.00
8253;DHT22;61313;48.396;10.008;2022-08-19T06:07:46;21.40;1.00
8253;DHT22;61313;48.396;10.008;2022-08-19T06:10:12;21.40;1.00
8253;DHT22;61313;48.396;10.008;2022-08-19T06:12:39;21.50;1.00
8253;DHT22;61313;48.396;10.008;2022-08-19T06:15:10;21.60;1.00
8253;DHT22;61313;48.396;10.008;2022-08-19T06:17:38;21.70;99.90
8253;DHT22;61313;48.396;10.008;2022-08-19T06:20:06;21.70;99.90
8253;DHT22;61313;48.396;10.008;2022-08-19T06:22:41;21.70;99.90
8253;DHT22;61313;48.396;10.008;2022-08-19T06:25:08;21.70;99.90
8253;DHT22;61313;48.396;10.008;2022-08-19T06:27:37;21.70;99.90
8253;DHT22;61313;48.396;10.008;2022-08-19T06:30:04;21.60;99.90
8253;DHT22;61313;48.396;10.008;2022-08-19T06:32:30;21.70;98.00
8253;DHT22;61313;48.396;10.008;2022-08-19T06:34:56;21.50;1.00
8253;DHT22;61313;48.396;10.008;2022-08-19T06:37:22;21.50;1.00
8253;DHT22;61313;48.396;10.008;2022-08-19T06:39:49;21.50;99.90
8253;DHT22;61313;48.396;10.008;2022-08-19T06:42:15;21.50;99.90
8253;DHT22;61313;48.396;10.008;2022-08-19T06:44:46;21.60;99.90
8253;DHT22;61313;48.396;10.008;2022-08-19T06:47:17;21.60;99.90
8253;DHT22;61313;48.396;10.008;2022-08-19T06:49:44;21.60;99.90
8253;DHT22;61313;48.396;10.008;2022-08-19T06:52:10;21.70;99.90
8253;DHT22;61313;48.396;10.008;2022-08-19T06:54:41;21.70;1.00
8253;DHT22;61313;48.396;10.008;2022-08-19T06:57:07;21.70;1.00
8253;DHT22;61313;48.396;10.008;2022-08-19T06:59:38;21.80;1.00
8253;DHT22;61313;48.396;10.008;2022-08-19T07:02:05;21.70;99.00
8253;DHT22;61313;48.396;10.008;2022-08-19T07:04:33;21.70;44.50
8253;DHT22;61313;48.396;10.008;2022-08-19T07:07:08;21.60;1.00
8253;DHT22;61313;48.396;10.008;2022-08-19T07:09:37;21.30;99.90
8253;DHT22;61313;48.396;10.008;2022-08-19T07:12:06;21.20;1.00
8253;DHT22;61313;48.396;10.008;2022-08-19T07:14:33;20.90;1.00
8253;DHT22;61313;48.396;10.008;2022-08-19T07:17:03;20.80;46.20
8253;DHT22;61313;48.396;10.008;2022-08-19T07:19:29;20.70;99.90
8253;DHT22;61313;48.396;10.008;2022-08-19T07:21:54;21.40;1.00
8253;DHT22;61313;48.396;10.008;2022-08-19T07:24:23;22.10;1.00
8253;DHT22;61313;48.396;10.008;2022-08-19T07:26:50;22.10;99.90
8253;DHT22;61313;48.396;10.008;2022-08-19T07:29:17;22.00;99.90
8253;DHT22;61313;48.396;10.008;2022-08-19T07:31:43;21.90;99.90
8253;DHT22;61313;48.396;10.008;2022-08-19T07:34:11;22.10;4.20
8253;DHT22;61313;48.396;10.008;2022-08-19T07:36:41;22.00;59.00
8253;DHT22;61313;48.396;10.008;2022-08-19T07:39:22;22.00;99.90
8253;DHT22;61313;48.396;10.008;2022-08-19T07:41:48;22.00;99.90
8253;DHT22;61313;48.396;10.008;2022-08-19T07:44:16;21.70;1.00
8253;DHT22;61313;48.396;10.008;2022-08-19T07:46:45;20.80;99.90
8253;DHT22;61313;48.396;10.008;2022-08-19T07:49:12;20.70;1.00
8253;DHT22;61313;48.396;10.008;2022-08-19T07:51:44;21.60;99.90
8253;DHT22;61313;48.396;10.008;2022-08-19T07:54:10;21.70;1.00
8253;DHT22;61313;48.396;10.008;2022-08-19T07:56:37;21.60;1.00
8253;DHT22;61313;48.396;10.008;2022-08-19T07:59:03;21.50;99.90
8253;DHT22;61313;48.396;10.008;2022-08-19T08:01:30;21.50;99.90
8253;DHT22;61313;48.396;10.008;2022-08-19T08:03:57;21.50;99.90
8253;DHT22;61313;48.396;10.008;2022-08-19T08:06:42;21.60;99.90
8253;DHT22;61313;48.396;10.008;2022-08-19T08:09:38;21.60;99.90
8253;DHT22;61313;48.396;10.008;2022-08-19T08:12:08;21.60;65.20
8253;DHT22;61313;48.396;10.008;2022-08-19T08:14:48;21.50;99.90
8253;DHT22;61313;48.396;10.008;2022-08-19T08:17:16;21.40;99.90
8253;DHT22;61313;48.396;10.008;2022-08-19T08:19:43;21.30;99.90
8253;DHT22;61313;48.396;10.008;2022-08-19T08:22:11;21.00;1.00
8253;DHT22;61313;48.396;10.008;2022-08-19T08:24:55;21.00;2.90
8253;DHT22;61313;48.396;10.008;2022-08-19T08:27:24;21.20;1.00
8253;DHT22;61313;48.396;10.008;2022-08-19T08:29:50;21.40;1.00
8253;DHT22;61313;48.396;10.008;2022-08-19T08:32:16;21.00;1.00
8253;DHT22;61313;48.396;10.008;2022-08-19T08:34:42;20.50;1.00
8253;DHT22;61313;48.396;10.008;2022-08-19T08:37:08;20.30;99.90
8253;DHT22;61313;48.396;10.008;2022-08-19T08:39:34;20.20;1.00
8253;DHT22;61313;48.396;10.008;2022-08-19T08:42:32;20.10;1.00
8253;DHT22;61313;48.396;10.008;2022-08-19T08:45:06;20.00;1.00
8253;DHT22;61313;48.396;10.008;2022-08-19T08:47:39;20.00;99.90
8253;DHT22;61313;48.396;10.008;2022-08-19T08:50:13;20.00;99.90
8253;DHT22;61313;48.396;10.008;2022-08-19T08:52:46;20.00;99.90
8253;DHT22;61313;48.396;10.008;2022-08-19T08:55:19;20.00;18.10
8253;DHT22;61313;48.396;10.008;2022-08-19T09:02:48;19.90;20.40
8253;DHT22;61313;48.396;10.008;2022-08-19T09:05:14;19.90;54.90
8253;DHT22;61313;48.396;10.008;2022-08-19T09:10:20;19.90;1.00
8253;DHT22;61313;48.396;10.008;2022-08-19T09:13:05;19.90;1.00
8253;DHT22;61313;48.396;10.008;2022-08-19T09:15:37;19.70;99.90
8253;DHT22;61313;48.396;10.008;2022-08-19T09:18:04;19.70;99.90
8253;DHT22;61313;48.396;10.008;2022-08-19T09:20:31;19.80;99.90
8253;DHT22;61313;48.396;10.008;2022-08-19T09:22:58;19.80;99.90
8253;DHT22;61313;48.396;10.008;2022-08-19T09:25:24;19.90;99.10
8253;DHT22;61313;48.396;10.008;2022-08-19T09:27:51;19.90;99.90
8253;DHT22;61313;48.396;10.008;2022-08-19T09:30:22;20.00;99.90
8253;DHT22;61313;48.396;10.008;2022-08-19T09:32:49;20.00;99.90
8253;DHT22;61313;48.396;10.008;2022-08-19T09:35:19;19.80;56.40
8253;DHT22;61313;48.396;10.008;2022-08-19T09:37:46;20.00;1.00
8253;DHT22;61313;48.396;10.008;2022-08-19T09:40:12;20.00;1.00
8253;DHT22;61313;48.396;10.008;2022-08-19T09:42:38;20.00;1.00
8253;DHT22;61313;48.396;10.008;2022-08-19T09:45:04;20.10;1.00
8253;DHT22;61313;48.396;10.008;2022-08-19T09:47:30;20.10;1.00
8253;DHT22;61313;48.396;10.008;2022-08-19T09:49:57;20.10;1.00
8253;DHT22;61313;48.396;10.008;2022-08-19T09:52:23;20.10;8.30
8253;DHT22;61313;48.396;10.008;2022-08-19T09:54:52;20.10;2.60
8253;DHT22;61313;48.396;10.008;2022-08-19T09:57:18;20.10;92.00
8253;DHT22;61313;48.396;10.008;2022-08-19T09:59:44;20.20;1.00
8253;DHT22;61313;48.396;10.008;2022-08-19T10:02:10;20.20;1.00
8253;DHT22;61313;48.396;10.008;2022-08-19T10:04:36;20.20;92.40
8253;DHT22;61313;48.396;10.008;2022-08-19T10:07:20;20.30;14.50
8253;DHT22;61313;48.396;10.008;2022-08-19T10:09:47;20.20;1.00
8253;DHT22;61313;48.396;10.008;2022-08-19T10:12:12;20.10;99.90
8253;DHT22;61313;48.396;10.008;2022-08-19T10:14:40;20.10;99.90
8253;DHT22;61313;48.396;10.008;2022-08-19T10:17:06;20.10;44.40
8253;DHT22;61313;48.396;10.008;2022-08-19T10:19:32;20.10;49.70
8253;DHT22;61313;48.396;10.008;2022-08-19T10:22:05;20.20;1.00
8253;DHT22;61313;48.396;10.008;2022-08-19T10:24:32;20.10;1.00
8253;DHT22;61313;48.396;10.008;2022-08-19T10:27:00;20.60;1.00
8253;DHT22;61313;48.396;10.008;2022-08-19T10:29:28;21.00;1.00
8253;DHT22;61313;48.396;10.008;2022-08-19T10:31:54;21.40;1.00
8253;DHT22;61313;48.396;10.008;2022-08-19T10:34:21;21.50;99.90
8253;DHT22;61313;48.396;10.008;2022-08-19T10:36:47;21.60;99.90
8253;DHT22;61313;48.396;10.008;2022-08-19T10:39:13;21.40;1.00
8253;DHT22;61313;48.396;10.008;2022-08-19T10:41:39;21.40;99.90
8253;DHT22;61313;48.396;10.008;2022-08-19T10:44:08;21.60;99.90
8253;DHT22;61313;48.396;10.008;2022-08-19T10:46:37;21.60;1.00
8253;DHT22;61313;48.396;10.008;2022-08-19T10:49:05;21.70;1.00
8253;DHT22;61313;48.396;10.008;2022-08-19T10:51:31;21.70;99.90
8253;DHT22;61313;48.396;10.008;2022-08-19T10:54:17;21.60;1.00
8253;DHT22;61313;48.396;10.008;2022-08-19T10:56:43;21.70;1.00
8253;DHT22;61313;48.396;10.008;2022-08-19T10:59:29;21.70;99.90
8253;DHT22;61313;48.396;10.008;2022-08-19T11:01:59;21.80;1.00
8253;DHT22;61313;48.396;10.008;2022-08-19T11:04:25;21.80;93.60
8253;DHT22;61313;48.396;10.008;2022-08-19T11:06:51;21.80;99.90
8253;DHT22;61313;48.396;10.008;2022-08-19T11:09:20;21.70;51.80
8253;DHT22;61313;48.396;10.008;2022-08-19T11:11:46;21.70;99.90
8253;DHT22;61313;48.396;10.008;2022-08-19T11:14:15;21.60;1.00
8253;DHT22;61313;48.396;10.008;2022-08-19T11:16:42;21.70;1.00
8253;DHT22;61313;48.396;10.008;2022-08-19T11:19:10;21.50;99.90
8253;DHT22;61313;48.396;10.008;2022-08-19T11:21:40;21.60;99.90
8253;DHT22;61313;48.396;10.008;2022-08-19T11:24:10;21.60;1.00
8253;DHT22;61313;48.396;10.008;2022-08-19T11:26:38;21.50;1.00
8253;DHT22;61313;48.396;10.008;2022-08-19T11:29:05;21.50;99.90
8253;DHT22;61313;48.396;10.008;2022-08-19T11:31:34;21.60;11.60
8253;DHT22;61313;48.396;10.008;2022-08-19T11:34:04;21.60;1.00
8253;DHT22;61313;48.396;10.008;2022-08-19T11:36:31;21.50;1.00
8253;DHT22;61313;48.396;10.008;2022-08-19T11:39:01;21.60;1.00
8253;DHT22;61313;48.396;10.008;2022-08-19T11:41:27;21.20;99.90
8253;DHT22;61313;48.396;10.008;2022-08-19T11:43:54;21.20;1.00
8253;DHT22;61313;48.396;10.008;2022-08-19T11:46:22;21.30;99.90
8253;DHT22;61313;48.396;10.008;2022-08-19T11:48:48;21.30;1.00
8253;DHT22;61313;48.396;10.008;2022-08-19T11:51:18;21.40;99.90
8253;DHT22;61313;48.396;10.008;2022-08-19T11:53:44;21.50;1.00
8253;DHT22;61313;48.396;10.008;2022-08-19T11:56:10;21.50;99.90
8253;DHT22;61313;48.396;10.008;2022-08-19T11:58:37;21.60;1.00
8253;DHT22;61313;48.396;10.008;2022-08-19T12:01:06;21.60;99.90
8253;DHT22;61313;48.396;10.008;2022-08-19T12:03:33;21.40;1.00
8253;DHT22;61313;48.396;10.008;2022-08-19T12:06:06;21.20;99.90
8253;DHT22;61313;48.396;10.008;2022-08-19T12:08:33;21.00;99.90
8253;DHT22;61313;48.396;10.008;2022-08-19T12:10:59;20.80;1.00
8253;DHT22;61313;48.396;10.008;2022-08-19T12:13:29;20.70;1.00
8253;DHT22;61313;48.396;10.008;2022-08-19T12:15:55;20.60;25.80
8253;DHT22;61313;48.396;10.008;2022-08-19T12:18:21;20.50;99.90
8253;DHT22;61313;48.396;10.008;2022-08-19T12:20:50;20.60;99.90
8253;DHT22;61313;48.396;10.008;2022-08-19T12:23:17;20.50;99.90
8253;DHT22;61313;48.396;10.008;2022-08-19T12:25:47;20.50;99.90
8253;DHT22;61313;48.396;10.008;2022-08-19T12:28:21;20.50;99.90
8253;DHT22;61313;48.396;10.008;2022-08-19T12:30:48;20.40;99.90
8253;DHT22;61313;48.396;10.008;2022-08-19T12:33:14;20.40;99.90
8253;DHT22;61313;48.396;10.008;2022-08-19T12:35:44;20.30;99.90
8253;DHT22;61313;48.396;10.008;2022-08-19T12:38:12;20.30;99.90
8253;DHT22;61313;48.396;10.008;2022-08-19T12:40:38;20.40;99.90
8253;DHT22;61313;48.396;10.008;2022-08-19T12:43:08;20.40;99.90
8253;DHT22;61313;48.396;10.008;2022-08-19T12:45:34;20.40;99.90
8253;DHT22;61313;48.396;10.008;2022-08-19T12:48:00;20.40;99.90
8253;DHT22;61313;48.396;10.008;2022-08-19T12:50:26;20.40;1.00
8253;DHT22;61313;48.396;10.008;2022-08-19T12:52:52;20.30;1.00
8253;DHT22;61313;48.396;10.008;2022-08-19T12:55:18;20.30;1.00
8253;DHT22;61313;48.396;10.008;2022-08-19T12:57:45;20.40;1.00
8253;DHT22;61313;48.396;10.008;2022-08-19T13:00:16;20.40;1.00
8253;DHT22;61313;48.396;10.008;2022-08-19T13:02:45;20.30;1.00
8253;DHT22;61313;48.396;10.008;2022-08-19T13:05:16;20.40;1.00
8253;DHT22;61313;48.396;10.008;2022-08-19T13:07:45;20.40;1.00
8253;DHT22;61313;48.396;10.008;2022-08-19T13:10:14;20.40;1.00
8253;DHT22;61313;48.396;10.008;2022-08-19T13:12:41;20.40;1.00
8253;DHT22;61313;48.396;10.008;2022-08-19T13:15:08;20.40;1.00
8253;DHT22;61313;48.396;10.008;2022-08-19T13:17:35;20.40;1.00
8253;DHT22;61313;48.396;10.008;2022-08-19T13:20:01;20.40;1.00
8253;DHT22;61313;48.396;10.008;2022-08-19T13:22:28;20.40;1.00
8253;DHT22;61313;48.396;10.008;2022-08-19T13:24:54;20.40;1.00
8253;DHT22;61313;48.396;10.008;2022-08-19T13:27:19;20.30;1.00
8253;DHT22;61313;48.396;10.008;2022-08-19T13:29:45;20.30;1.00
8253;DHT22;61313;48.396;10.008;2022-08-19T13:32:30;20.20;1.00
8253;DHT22;61313;48.396;10.008;2022-08-19T13:35:15;20.10;1.00
8253;DHT22;61313;48.396;10.008;2022-08-19T13:37:41;20.10;1.00
8253;DHT22;61313;48.396;10.008;2022-08-19T13:40:19;20.10;1.00
8253;DHT22;61313;48.396;10.008;2022-08-19T13:42:47;20.00;1.00
8253;DHT22;61313;48.396;10.008;2022-08-19T13:45:17;20.00;1.00
8253;DHT22;61313;48.396;10.008;2022-08-19T13:47:49;20.00;1.00
8253;DHT22;61313;48.396;10.008;2022-08-19T13:50:18;19.90;1.00
8253;DHT22;61313;48.396;10.008;2022-08-19T13:52:45;20.00;1.00
8253;DHT22;61313;48.396;10.008;2022-08-19T13:55:11;20.00;1.00
8253;DHT22;61313;48.396;10.008;2022-08-19T13:57:38;20.00;1.00
8253;DHT22;61313;48.396;10.008;2022-08-19T14:00:17;20.10;1.00
8253;DHT22;61313;48.396;10.008;2022-08-19T14:02:44;20.00;1.00
8253;DHT22;61313;48.396;10.008;2022-08-19T14:05:12;20.00;1.00
8253;DHT22;61313;48.396;10.008;2022-08-19T14:07:39;20.10;1.00
8253;DHT22;61313;48.396;10.008;2022-08-19T14:10:07;20.10;1.00
8253;DHT22;61313;48.396;10.008;2022-08-19T14:12:33;20.10;1.00
8253;DHT22;61313;48.396;10.008;2022-08-19T14:15:00;20.10;1.00
8253;DHT22;61313;48.396;10.008;2022-08-19T14:17:26;20.10;1.00
8253;DHT22;61313;48.396;10.008;2022-08-19T14:19:59;20.20;1.00
8253;DHT22;61313;48.396;10.008;2022-08-19T14:22:33;20.20;1.00
8253;DHT22;61313;48.396;10.008;2022-08-19T14:24:58;20.20;1.00
8253;DHT22;61313;48.396;10.008;2022-08-19T14:27:24;20.20;1.00
8253;DHT22;61313;48.396;10.008;2022-08-19T14:29:51;20.20;1.00
8253;DHT22;61313;48.396;10.008;2022-08-19T14:32:17;20.10;1.00
8253;DHT22;61313;48.396;10.008;2022-08-19T14:34:43;20.20;1.00
8253;DHT22;61313;48.396;10.008;2022-08-19T14:37:12;20.20;1.00
8253;DHT22;61313;48.396;10.008;2022-08-19T14:39:40;20.20;1.00
8253;DHT22;61313;48.396;10.008;2022-08-19T14:42:09;20.20;1.00
8253;DHT22;61313;48.396;10.008;2022-08-19T14:44:35;20.20;1.00
8253;DHT22;61313;48.396;10.008;2022-08-19T14:47:02;20.20;1.00
8253;DHT22;61313;48.396;10.008;2022-08-19T14:49:28;20.20;1.00
8253;DHT22;61313;48.396;10.008;2022-08-19T14:51:53;20.10;1.00
8253;DHT22;61313;48.396;10.008;2022-08-19T14:54:20;20.20;1.00
8253;DHT22;61313;48.396;10.008;2022-08-19T14:56:47;20.20;1.00
8253;DHT22;61313;48.396;10.008;2022-08-19T14:59:13;20.20;1.00
8253;DHT22;61313;48.396;10.008;2022-08-19T15:01:39;20.20;1.00
8253;DHT22;61313;48.396;10.008;2022-08-19T15:04:05;20.20;1.00
8253;DHT22;61313;48.396;10.008;2022-08-19T15:06:31;20.20;1.00
8253;DHT22;61313;48.396;10.008;2022-08-19T15:08:58;20.20;1.00
8253;DHT22;61313;48.396;10.008;2022-08-19T15:11:25;20.20;1.00
8253;DHT22;61313;48.396;10.008;2022-08-19T15:13:55;20.20;1.00
8253;DHT22;61313;48.396;10.008;2022-08-19T15:16:23;20.20;1.00
8253;DHT22;61313;48.396;10.008;2022-08-19T15:18:52;20.10;1.00
8253;DHT22;61313;48.396;10.008;2022-08-19T15:21:21;20.10;1.00
8253;DHT22;61313;48.396;10.008;2022-08-19T15:23:49;20.10;1.00
8253;DHT22;61313;48.396;10.008;2022-08-19T15:26:17;20.20;1.00
8253;DHT22;61313;48.396;10.008;2022-08-19T15:28:44;20.20;1.00
8253;DHT22;61313;48.396;10.008;2022-08-19T15:31:11;20.20;1.00
8253;DHT22;61313;48.396;10.008;2022-08-19T15:33:38;20.20;1.00
8253;DHT22;61313;48.396;10.008;2022-08-19T15:36:10;20.20;1.00
8253;DHT22;61313;48.396;10.008;2022-08-19T15:38:39;20.10;1.00
8253;DHT22;61313;48.396;10.008;2022-08-19T15:41:22;20.10;1.00
8253;DHT22;61313;48.396;10.008;2022-08-19T15:43:49;20.20;1.00
8253;DHT22;61313;48.396;10.008;2022-08-19T15:46:20;20.20;1.00
8253;DHT22;61313;48.396;10.008;2022-08-19T15:48:50;20.20;1.00
8253;DHT22;61313;48.396;10.008;2022-08-19T15:51:16;20.20;1.00
8253;DHT22;61313;48.396;10.008;2022-08-19T15:53:43;20.20;1.00
8253;DHT22;61313;48.396;10.008;2022-08-19T15:56:10;20.30;1.00